sensor_id;sensor_type;location;lat;lon;timestamp;P1;durP1;ratioP1;P2;durP2;ratioP2
20525;SDS011;10421;49.142;9.232;2024-02-14T00:02:26;7.67;;;4.60;;
20525;SDS011;10421;49.142;9.232;2024-02-14T00:04:53;6.80;;;3.90;;
20525;SDS011;10421;49.142;9.232;2024-02-14T00:07:20;7.10;;;4.47;;
20525;SDS011;10421;49.142;9.232;2024-02-14T00:09:47;4.50;;;3.83;;
20525;SDS011;10421;49.142;9.232;2024-02-14T00:12:14;10.20;;;4.40;;
20525;SDS011;10421;49.142;9.232;2024-02-14T00:14:40;7.60;;;4.33;;
20525;SDS011;10421;49.142;9.232;2024-02-14T00:17:08;6.07;;;3.97;;
20525;SDS011;10421;49.142;9.232;2024-02-14T00:19:37;7.13;;;4.87;;
20525;SDS011;10421;49.142;9.232;2024-02-14T00:22:04;6.73;;;5.67;;
20525;SDS011;10421;49.142;9.232;2024-02-14T00:24:31;5.43;;;3.33;;
20525;SDS011;10421;49.142;9.232;2024-02-14T00:26:59;7.33;;;4.50;;
20525;SDS011;10421;49.142;9.232;2024-02-14T00:29:25;7.57;;;4.10;;
20525;SDS011;10421;49.142;9.232;2024-02-14T00:31:53;4.53;;;3.57;;
20525;SDS011;10421;49.142;9.232;2024-02-14T00:34:19;8.60;;;5.00;;
20525;SDS011;10421;49.142;9.232;2024-02-14T00:36:48;7.73;;;4.57;;
20525;SDS011;10421;49.142;9.232;2024-02-14T00:39:15;9.30;;;5.13;;
20525;SDS011;10421;49.142;9.232;2024-02-14T00:41:41;6.73;;;4.07;;
20525;SDS011;10421;49.142;9.232;2024-02-14T00:44:08;4.73;;;4.13;;
20525;SDS011;10421;49.142;9.232;2024-02-14T00:46:35;5.60;;;4.30;;
20525;SDS011;10421;49.142;9.232;2024-02-14T00:49:02;6.20;;;4.30;;
20525;SDS011;10421;49.142;9.232;2024-02-14T00:51:29;7.43;;;4.47;;
20525;SDS011;10421;49.142;9.232;2024-02-14T00:53:57;6.43;;;4.50;;
20525;SDS011;10421;49.142;9.232;2024-02-14T00:56:23;5.00;;;4.27;;
20525;SDS011;10421;49.142;9.232;2024-02-14T00:58:51;5.17;;;3.83;;
20525;SDS011;10421;49.142;9.232;2024-02-14T01:01:17;7.37;;;4.63;;
20525;SDS011;10421;49.142;9.232;2024-02-14T01:03:44;7.07;;;3.70;;
20525;SDS011;10421;49.142;9.232;2024-02-14T01:06:11;7.43;;;4.73;;
20525;SDS011;10421;49.142;9.232;2024-02-14T01:08:39;4.17;;;3.77;;
20525;SDS011;10421;49.142;9.232;2024-02-14T01:11:07;7.40;;;4.13;;
20525;SDS011;10421;49.142;9.232;2024-02-14T01:13:34;6.03;;;3.87;;
20525;SDS011;10421;49.142;9.232;2024-02-14T01:16:02;5.63;;;3.53;;
20525;SDS011;10421;49.142;9.232;2024-02-14T01:18:30;6.50;;;3.70;;
20525;SDS011;10421;49.142;9.232;2024-02-14T01:20:56;4.60;;;3.33;;
20525;SDS011;10421;49.142;9.232;2024-02-14T01:23:25;6.20;;;3.27;;
20525;SDS011;10421;49.142;9.232;2024-02-14T01:25:52;7.00;;;3.40;;
20525;SDS011;10421;49.142;9.232;2024-02-14T01:28:21;4.13;;;3.53;;
20525;SDS011;10421;49.142;9.232;2024-02-14T01:30:47;4.30;;;3.50;;
20525;SDS011;10421;49.142;9.232;2024-02-14T01:33:15;5.40;;;2.90;;
20525;SDS011;10421;49.142;9.232;2024-02-14T01:35:42;3.73;;;2.80;;
20525;SDS011;10421;49.142;9.232;2024-02-14T01:38:09;4.03;;;3.30;;
20525;SDS011;10421;49.142;9.232;2024-02-14T01:40:37;6.23;;;3.63;;
20525;SDS011;10421;49.142;9.232;2024-02-14T01:43:04;7.13;;;3.23;;
20525;SDS011;10421;49.142;9.232;2024-02-14T01:45:32;5.53;;;3.63;;
20525;SDS011;10421;49.142;9.232;2024-02-14T01:47:59;10.67;;;3.27;;
20525;SDS011;10421;49.142;9.232;2024-02-14T01:50:27;5.30;;;3.63;;
20525;SDS011;10421;49.142;9.232;2024-02-14T01:52:55;5.00;;;3.97;;
20525;SDS011;10421;49.142;9.232;2024-02-14T01:55:24;7.30;;;4.20;;
20525;SDS011;10421;49.142;9.232;2024-02-14T01:57:51;4.70;;;4.17;;
20525;SDS011;10421;49.142;9.232;2024-02-14T02:00:19;7.00;;;3.90;;
20525;SDS011;10421;49.142;9.232;2024-02-14T02:02:48;6.17;;;4.30;;
20525;SDS011;10421;49.142;9.232;2024-02-14T02:05:15;5.50;;;4.17;;
20525;SDS011;10421;49.142;9.232;2024-02-14T02:07:42;4.83;;;3.73;;
20525;SDS011;10421;49.142;9.232;2024-02-14T02:10:09;4.30;;;3.33;;
20525;SDS011;10421;49.142;9.232;2024-02-14T02:12:37;4.07;;;3.67;;
20525;SDS011;10421;49.142;9.232;2024-02-14T02:15:04;7.30;;;3.20;;
20525;SDS011;10421;49.142;9.232;2024-02-14T02:17:33;5.60;;;3.20;;
20525;SDS011;10421;49.142;9.232;2024-02-14T02:20:01;4.63;;;3.83;;
20525;SDS011;10421;49.142;9.232;2024-02-14T02:22:30;5.30;;;3.27;;
20525;SDS011;10421;49.142;9.232;2024-02-14T02:25:01;8.40;;;3.30;;
20525;SDS011;10421;49.142;9.232;2024-02-14T02:27:31;6.40;;;3.93;;
20525;SDS011;10421;49.142;9.232;2024-02-14T02:30:00;3.70;;;2.90;;
20525;SDS011;10421;49.142;9.232;2024-02-14T02:32:26;9.27;;;2.80;;
20525;SDS011;10421;49.142;9.232;2024-02-14T02:34:53;6.00;;;3.43;;
20525;SDS011;10421;49.142;9.232;2024-02-14T02:37:21;4.43;;;3.00;;
20525;SDS011;10421;49.142;9.232;2024-02-14T02:39:48;6.03;;;2.83;;
20525;SDS011;10421;49.142;9.232;2024-02-14T02:42:17;4.63;;;2.43;;
20525;SDS011;10421;49.142;9.232;2024-02-14T02:44:45;3.57;;;2.60;;
20525;SDS011;10421;49.142;9.232;2024-02-14T02:47:13;4.30;;;3.37;;
20525;SDS011;10421;49.142;9.232;2024-02-14T02:49:41;4.20;;;3.33;;
20525;SDS011;10421;49.142;9.232;2024-02-14T02:52:09;4.30;;;3.20;;
20525;SDS011;10421;49.142;9.232;2024-02-14T02:54:36;11.07;;;3.80;;
20525;SDS011;10421;49.142;9.232;2024-02-14T02:57:04;8.60;;;3.90;;
20525;SDS011;10421;49.142;9.232;2024-02-14T02:59:32;8.13;;;3.80;;
20525;SDS011;10421;49.142;9.232;2024-02-14T03:02:00;4.70;;;3.27;;
20525;SDS011;10421;49.142;9.232;2024-02-14T03:04:27;4.13;;;3.67;;
20525;SDS011;10421;49.142;9.232;2024-02-14T03:06:54;5.10;;;3.73;;
20525;SDS011;10421;49.142;9.232;2024-02-14T03:09:21;5.33;;;3.90;;
20525;SDS011;10421;49.142;9.232;2024-02-14T03:11:48;7.23;;;3.90;;
20525;SDS011;10421;49.142;9.232;2024-02-14T03:14:15;7.17;;;4.37;;
20525;SDS011;10421;49.142;9.232;2024-02-14T03:16:43;4.67;;;3.30;;
20525;SDS011;10421;49.142;9.232;2024-02-14T03:19:09;5.80;;;3.60;;
20525;SDS011;10421;49.142;9.232;2024-02-14T03:21:36;5.90;;;3.50;;
20525;SDS011;10421;49.142;9.232;2024-02-14T03:24:03;7.97;;;3.73;;
20525;SDS011;10421;49.142;9.232;2024-02-14T03:26:30;7.47;;;3.30;;
20525;SDS011;10421;49.142;9.232;2024-02-14T03:28:58;4.87;;;3.53;;
20525;SDS011;10421;49.142;9.232;2024-02-14T03:31:25;6.63;;;3.90;;
20525;SDS011;10421;49.142;9.232;2024-02-14T03:33:53;5.67;;;3.47;;
20525;SDS011;10421;49.142;9.232;2024-02-14T03:36:20;6.33;;;4.20;;
20525;SDS011;10421;49.142;9.232;2024-02-14T03:38:49;4.40;;;3.43;;
20525;SDS011;10421;49.142;9.232;2024-02-14T03:41:15;7.30;;;3.97;;
20525;SDS011;10421;49.142;9.232;2024-02-14T03:43:42;7.50;;;4.17;;
20525;SDS011;10421;49.142;9.232;2024-02-14T03:46:09;7.43;;;3.97;;
20525;SDS011;10421;49.142;9.232;2024-02-14T03:48:38;3.90;;;3.53;;
20525;SDS011;10421;49.142;9.232;2024-02-14T03:51:07;10.33;;;4.00;;
20525;SDS011;10421;49.142;9.232;2024-02-14T03:53:33;5.27;;;3.17;;
20525;SDS011;10421;49.142;9.232;2024-02-14T03:56:02;6.70;;;3.40;;
20525;SDS011;10421;49.142;9.232;2024-02-14T03:58:30;3.97;;;3.33;;
20525;SDS011;10421;49.142;9.232;2024-02-14T04:00:58;6.77;;;3.87;;
20525;SDS011;10421;49.142;9.232;2024-02-14T04:03:24;4.33;;;3.90;;
20525;SDS011;10421;49.142;9.232;2024-02-14T04:05:54;5.23;;;3.80;;
20525;SDS011;10421;49.142;9.232;2024-02-14T04:08:22;4.43;;;3.87;;
20525;SDS011;10421;49.142;9.232;2024-02-14T04:10:49;6.23;;;3.27;;
20525;SDS011;10421;49.142;9.232;2024-02-14T04:13:18;5.13;;;3.73;;
20525;SDS011;10421;49.142;9.232;2024-02-14T04:15:45;3.83;;;3.43;;
20525;SDS011;10421;49.142;9.232;2024-02-14T04:18:12;4.30;;;3.50;;
20525;SDS011;10421;49.142;9.232;2024-02-14T04:20:39;4.83;;;3.80;;
20525;SDS011;10421;49.142;9.232;2024-02-14T04:23:06;5.23;;;3.20;;
20525;SDS011;10421;49.142;9.232;2024-02-14T04:25:35;5.70;;;3.60;;
20525;SDS011;10421;49.142;9.232;2024-02-14T04:28:02;5.00;;;3.13;;
20525;SDS011;10421;49.142;9.232;2024-02-14T04:30:29;7.37;;;3.50;;
20525;SDS011;10421;49.142;9.232;2024-02-14T04:32:56;5.80;;;3.23;;
20525;SDS011;10421;49.142;9.232;2024-02-14T04:35:22;6.20;;;3.60;;
20525;SDS011;10421;49.142;9.232;2024-02-14T04:37:49;5.43;;;3.83;;
20525;SDS011;10421;49.142;9.232;2024-02-14T04:40:17;5.33;;;3.50;;
20525;SDS011;10421;49.142;9.232;2024-02-14T04:42:46;4.17;;;2.93;;
20525;SDS011;10421;49.142;9.232;2024-02-14T04:45:13;3.40;;;2.87;;
20525;SDS011;10421;49.142;9.232;2024-02-14T04:47:39;3.50;;;2.83;;
20525;SDS011;10421;49.142;9.232;2024-02-14T04:50:07;7.50;;;3.00;;
20525;SDS011;10421;49.142;9.232;2024-02-14T04:52:34;8.93;;;3.30;;
20525;SDS011;10421;49.142;9.232;2024-02-14T04:55:01;4.43;;;2.73;;
20525;SDS011;10421;49.142;9.232;2024-02-14T04:57:28;3.37;;;3.07;;
20525;SDS011;10421;49.142;9.232;2024-02-14T04:59:57;3.10;;;2.80;;
20525;SDS011;10421;49.142;9.232;2024-02-14T05:02:24;6.03;;;3.90;;
20525;SDS011;10421;49.142;9.232;2024-02-14T05:04:51;3.60;;;2.83;;
20525;SDS011;10421;49.142;9.232;2024-02-14T05:07:19;4.83;;;3.10;;
20525;SDS011;10421;49.142;9.232;2024-02-14T05:09:46;6.93;;;3.23;;
20525;SDS011;10421;49.142;9.232;2024-02-14T05:12:15;5.90;;;2.73;;
20525;SDS011;10421;49.142;9.232;2024-02-14T05:14:42;7.90;;;3.20;;
20525;SDS011;10421;49.142;9.232;2024-02-14T05:17:10;4.17;;;2.30;;
20525;SDS011;10421;49.142;9.232;2024-02-14T05:19:36;3.47;;;2.83;;
20525;SDS011;10421;49.142;9.232;2024-02-14T05:22:03;5.57;;;3.20;;
20525;SDS011;10421;49.142;9.232;2024-02-14T05:24:30;4.23;;;3.00;;
20525;SDS011;10421;49.142;9.232;2024-02-14T05:26:57;4.60;;;3.13;;
20525;SDS011;10421;49.142;9.232;2024-02-14T05:29:23;4.07;;;2.83;;
20525;SDS011;10421;49.142;9.232;2024-02-14T05:31:50;5.17;;;3.00;;
20525;SDS011;10421;49.142;9.232;2024-02-14T05:34:21;2.93;;;2.60;;
20525;SDS011;10421;49.142;9.232;2024-02-14T05:36:48;2.90;;;2.23;;
20525;SDS011;10421;49.142;9.232;2024-02-14T05:39:16;3.70;;;2.40;;
20525;SDS011;10421;49.142;9.232;2024-02-14T05:41:44;7.60;;;2.67;;
20525;SDS011;10421;49.142;9.232;2024-02-14T05:44:10;3.10;;;2.40;;
20525;SDS011;10421;49.142;9.232;2024-02-14T05:46:37;4.80;;;2.47;;
20525;SDS011;10421;49.142;9.232;2024-02-14T05:49:04;4.97;;;2.80;;
20525;SDS011;10421;49.142;9.232;2024-02-14T05:51:32;4.30;;;2.60;;
20525;SDS011;10421;49.142;9.232;2024-02-14T05:53:59;6.87;;;2.57;;
20525;SDS011;10421;49.142;9.232;2024-02-14T05:56:26;2.57;;;2.10;;
20525;SDS011;10421;49.142;9.232;2024-02-14T05:58:52;3.67;;;2.10;;
20525;SDS011;10421;49.142;9.232;2024-02-14T06:01:19;3.70;;;2.53;;
20525;SDS011;10421;49.142;9.232;2024-02-14T06:03:46;2.83;;;2.30;;
20525;SDS011;10421;49.142;9.232;2024-02-14T06:06:13;4.60;;;2.30;;
20525;SDS011;10421;49.142;9.232;2024-02-14T06:08:41;5.93;;;2.50;;
20525;SDS011;10421;49.142;9.232;2024-02-14T06:11:07;2.90;;;2.40;;
20525;SDS011;10421;49.142;9.232;2024-02-14T06:13:34;2.60;;;2.03;;
20525;SDS011;10421;49.142;9.232;2024-02-14T06:16:01;3.60;;;2.47;;
20525;SDS011;10421;49.142;9.232;2024-02-14T06:18:28;2.00;;;1.90;;
20525;SDS011;10421;49.142;9.232;2024-02-14T06:20:55;3.93;;;2.30;;
20525;SDS011;10421;49.142;9.232;2024-02-14T06:23:22;3.53;;;2.30;;
20525;SDS011;10421;49.142;9.232;2024-02-14T06:25:50;3.37;;;2.03;;
20525;SDS011;10421;49.142;9.232;2024-02-14T06:28:16;3.83;;;2.40;;
20525;SDS011;10421;49.142;9.232;2024-02-14T06:30:43;2.57;;;2.37;;
20525;SDS011;10421;49.142;9.232;2024-02-14T06:33:10;5.23;;;2.80;;
20525;SDS011;10421;49.142;9.232;2024-02-14T06:35:36;4.30;;;2.63;;
20525;SDS011;10421;49.142;9.232;2024-02-14T06:38:03;4.87;;;2.47;;
20525;SDS011;10421;49.142;9.232;2024-02-14T06:40:30;5.60;;;3.13;;
20525;SDS011;10421;49.142;9.232;2024-02-14T06:42:59;5.67;;;2.87;;
20525;SDS011;10421;49.142;9.232;2024-02-14T06:45:26;3.43;;;2.60;;
20525;SDS011;10421;49.142;9.232;2024-02-14T06:47:52;5.30;;;3.27;;
20525;SDS011;10421;49.142;9.232;2024-02-14T06:50:20;5.30;;;3.20;;
20525;SDS011;10421;49.142;9.232;2024-02-14T06:52:47;3.20;;;2.80;;
20525;SDS011;10421;49.142;9.232;2024-02-14T06:55:13;6.80;;;4.10;;
20525;SDS011;10421;49.142;9.232;2024-02-14T06:57:40;4.73;;;3.50;;
20525;SDS011;10421;49.142;9.232;2024-02-14T07:00:09;4.57;;;3.00;;
20525;SDS011;10421;49.142;9.232;2024-02-14T07:02:36;3.30;;;3.00;;
20525;SDS011;10421;49.142;9.232;2024-02-14T07:05:04;3.53;;;3.03;;
20525;SDS011;10421;49.142;9.232;2024-02-14T07:07:33;5.27;;;2.83;;
20525;SDS011;10421;49.142;9.232;2024-02-14T07:09:59;3.30;;;2.83;;
20525;SDS011;10421;49.142;9.232;2024-02-14T07:12:26;6.47;;;3.47;;
20525;SDS011;10421;49.142;9.232;2024-02-14T07:14:55;6.40;;;2.53;;
20525;SDS011;10421;49.142;9.232;2024-02-14T07:17:23;5.80;;;2.70;;
20525;SDS011;10421;49.142;9.232;2024-02-14T07:19:50;4.70;;;2.80;;
20525;SDS011;10421;49.142;9.232;2024-02-14T07:22:17;4.93;;;2.87;;
20525;SDS011;10421;49.142;9.232;2024-02-14T07:24:44;5.20;;;2.80;;
20525;SDS011;10421;49.142;9.232;2024-02-14T07:27:12;3.60;;;2.53;;
20525;SDS011;10421;49.142;9.232;2024-02-14T07:29:41;4.57;;;2.63;;
20525;SDS011;10421;49.142;9.232;2024-02-14T07:32:09;11.33;;;2.63;;
20525;SDS011;10421;49.142;9.232;2024-02-14T07:34:39;3.10;;;2.30;;
20525;SDS011;10421;49.142;9.232;2024-02-14T07:37:06;5.30;;;2.90;;
20525;SDS011;10421;49.142;9.232;2024-02-14T07:39:33;7.80;;;3.23;;
20525;SDS011;10421;49.142;9.232;2024-02-14T07:42:00;4.87;;;2.33;;
20525;SDS011;10421;49.142;9.232;2024-02-14T07:44:27;7.47;;;3.03;;
20525;SDS011;10421;49.142;9.232;2024-02-14T07:46:54;4.90;;;2.67;;
20525;SDS011;10421;49.142;9.232;2024-02-14T07:49:21;5.40;;;2.90;;
20525;SDS011;10421;49.142;9.232;2024-02-14T07:51:49;3.13;;;2.80;;
20525;SDS011;10421;49.142;9.232;2024-02-14T07:54:16;3.90;;;2.90;;
20525;SDS011;10421;49.142;9.232;2024-02-14T07:56:44;4.20;;;2.40;;
20525;SDS011;10421;49.142;9.232;2024-02-14T07:59:11;4.10;;;3.00;;
20525;SDS011;10421;49.142;9.232;2024-02-14T08:01:37;4.37;;;2.70;;
20525;SDS011;10421;49.142;9.232;2024-02-14T08:04:04;5.93;;;2.97;;
20525;SDS011;10421;49.142;9.232;2024-02-14T08:06:31;5.70;;;2.87;;
20525;SDS011;10421;49.142;9.232;2024-02-14T08:09:00;6.40;;;2.60;;
20525;SDS011;10421;49.142;9.232;2024-02-14T08:11:31;4.07;;;2.50;;
20525;SDS011;10421;49.142;9.232;2024-02-14T08:13:58;6.80;;;3.23;;
20525;SDS011;10421;49.142;9.232;2024-02-14T08:16:25;4.40;;;3.20;;
20525;SDS011;10421;49.142;9.232;2024-02-14T08:18:51;8.00;;;3.47;;
20525;SDS011;10421;49.142;9.232;2024-02-14T08:21:23;6.30;;;3.37;;
20525;SDS011;10421;49.142;9.232;2024-02-14T08:23:50;8.03;;;4.20;;
20525;SDS011;10421;49.142;9.232;2024-02-14T08:26:18;3.87;;;2.80;;
20525;SDS011;10421;49.142;9.232;2024-02-14T08:28:45;9.60;;;4.40;;
20525;SDS011;10421;49.142;9.232;2024-02-14T08:31:12;7.87;;;3.17;;
20525;SDS011;10421;49.142;9.232;2024-02-14T08:33:39;7.07;;;3.17;;
20525;SDS011;10421;49.142;9.232;2024-02-14T08:36:06;9.50;;;2.57;;
20525;SDS011;10421;49.142;9.232;2024-02-14T08:38:33;6.50;;;2.63;;
20525;SDS011;10421;49.142;9.232;2024-02-14T08:41:00;3.33;;;2.80;;
20525;SDS011;10421;49.142;9.232;2024-02-14T08:43:28;4.00;;;2.50;;
20525;SDS011;10421;49.142;9.232;2024-02-14T08:45:55;5.47;;;2.50;;
20525;SDS011;10421;49.142;9.232;2024-02-14T08:48:22;2.43;;;2.13;;
20525;SDS011;10421;49.142;9.232;2024-02-14T08:50:52;6.50;;;2.50;;
20525;SDS011;10421;49.142;9.232;2024-02-14T08:53:19;7.90;;;2.57;;
20525;SDS011;10421;49.142;9.232;2024-02-14T08:55:46;4.50;;;2.30;;
20525;SDS011;10421;49.142;9.232;2024-02-14T08:58:12;3.53;;;1.90;;
20525;SDS011;10421;49.142;9.232;2024-02-14T09:00:40;5.10;;;2.17;;
20525;SDS011;10421;49.142;9.232;2024-02-14T09:03:07;4.73;;;2.40;;
20525;SDS011;10421;49.142;9.232;2024-02-14T09:05:34;6.00;;;2.60;;
20525;SDS011;10421;49.142;9.232;2024-02-14T09:08:02;3.10;;;2.20;;
20525;SDS011;10421;49.142;9.232;2024-02-14T09:10:29;14.63;;;2.53;;
20525;SDS011;10421;49.142;9.232;2024-02-14T09:12:56;9.00;;;2.87;;
20525;SDS011;10421;49.142;9.232;2024-02-14T09:15:22;3.53;;;2.13;;
20525;SDS011;10421;49.142;9.232;2024-02-14T09:17:51;3.03;;;2.10;;
20525;SDS011;10421;49.142;9.232;2024-02-14T09:20:17;4.57;;;2.40;;
20525;SDS011;10421;49.142;9.232;2024-02-14T09:22:45;7.93;;;2.43;;
20525;SDS011;10421;49.142;9.232;2024-02-14T09:25:12;5.93;;;2.30;;
20525;SDS011;10421;49.142;9.232;2024-02-14T09:27:39;3.43;;;2.90;;
20525;SDS011;10421;49.142;9.232;2024-02-14T09:30:06;7.53;;;2.70;;
20525;SDS011;10421;49.142;9.232;2024-02-14T09:32:33;4.30;;;2.43;;
20525;SDS011;10421;49.142;9.232;2024-02-14T09:35:01;4.53;;;2.20;;
20525;SDS011;10421;49.142;9.232;2024-02-14T09:37:31;2.97;;;2.07;;
20525;SDS011;10421;49.142;9.232;2024-02-14T09:39:58;7.93;;;2.50;;
20525;SDS011;10421;49.142;9.232;2024-02-14T09:42:27;4.63;;;1.73;;
20525;SDS011;10421;49.142;9.232;2024-02-14T09:45:04;2.30;;;1.83;;
20525;SDS011;10421;49.142;9.232;2024-02-14T09:47:33;3.60;;;2.07;;
20525;SDS011;10421;49.142;9.232;2024-02-14T09:50:02;5.23;;;2.10;;
20525;SDS011;10421;49.142;9.232;2024-02-14T09:52:32;4.80;;;2.13;;
20525;SDS011;10421;49.142;9.232;2024-02-14T09:54:59;2.53;;;1.70;;
20525;SDS011;10421;49.142;9.232;2024-02-14T09:57:29;4.93;;;2.37;;
20525;SDS011;10421;49.142;9.232;2024-02-14T09:59:57;2.83;;;2.00;;
20525;SDS011;10421;49.142;9.232;2024-02-14T10:02:26;3.17;;;2.17;;
20525;SDS011;10421;49.142;9.232;2024-02-14T10:04:52;3.20;;;2.13;;
20525;SDS011;10421;49.142;9.232;2024-02-14T10:07:21;6.00;;;2.20;;
20525;SDS011;10421;49.142;9.232;2024-02-14T10:09:48;1.97;;;1.60;;
20525;SDS011;10421;49.142;9.232;2024-02-14T10:12:14;4.93;;;2.37;;
20525;SDS011;10421;49.142;9.232;2024-02-14T10:14:42;4.47;;;1.93;;
20525;SDS011;10421;49.142;9.232;2024-02-14T10:17:16;3.93;;;2.47;;
20525;SDS011;10421;49.142;9.232;2024-02-14T10:19:43;3.27;;;1.57;;
20525;SDS011;10421;49.142;9.232;2024-02-14T10:22:23;4.07;;;1.93;;
20525;SDS011;10421;49.142;9.232;2024-02-14T10:24:50;2.57;;;1.67;;
20525;SDS011;10421;49.142;9.232;2024-02-14T10:27:20;3.20;;;1.80;;
20525;SDS011;10421;49.142;9.232;2024-02-14T10:29:47;3.73;;;2.20;;
20525;SDS011;10421;49.142;9.232;2024-02-14T10:32:14;3.43;;;2.00;;
20525;SDS011;10421;49.142;9.232;2024-02-14T10:34:42;4.40;;;1.90;;
20525;SDS011;10421;49.142;9.232;2024-02-14T10:37:12;2.10;;;1.93;;
20525;SDS011;10421;49.142;9.232;2024-02-14T10:39:42;3.23;;;1.73;;
20525;SDS011;10421;49.142;9.232;2024-02-14T10:42:11;2.50;;;1.77;;
20525;SDS011;10421;49.142;9.232;2024-02-14T10:44:39;3.33;;;2.13;;
20525;SDS011;10421;49.142;9.232;2024-02-14T10:47:07;4.27;;;2.00;;
20525;SDS011;10421;49.142;9.232;2024-02-14T10:49:39;3.40;;;2.00;;
20525;SDS011;10421;49.142;9.232;2024-02-14T10:52:08;4.83;;;2.13;;
20525;SDS011;10421;49.142;9.232;2024-02-14T10:54:36;4.00;;;2.00;;
20525;SDS011;10421;49.142;9.232;2024-02-14T10:57:06;2.47;;;1.80;;
20525;SDS011;10421;49.142;9.232;2024-02-14T10:59:37;4.00;;;2.30;;
20525;SDS011;10421;49.142;9.232;2024-02-14T11:02:06;3.17;;;1.97;;
20525;SDS011;10421;49.142;9.232;2024-02-14T11:04:34;3.30;;;2.23;;
20525;SDS011;10421;49.142;9.232;2024-02-14T11:07:00;6.90;;;3.13;;
20525;SDS011;10421;49.142;9.232;2024-02-14T11:09:35;4.03;;;3.20;;
20525;SDS011;10421;49.142;9.232;2024-02-14T11:12:08;3.30;;;2.43;;
20525;SDS011;10421;49.142;9.232;2024-02-14T11:14:36;4.50;;;2.20;;
20525;SDS011;10421;49.142;9.232;2024-02-14T11:17:03;4.47;;;2.00;;
20525;SDS011;10421;49.142;9.232;2024-02-14T11:19:34;4.33;;;1.80;;
20525;SDS011;10421;49.142;9.232;2024-02-14T11:22:09;3.63;;;2.00;;
20525;SDS011;10421;49.142;9.232;2024-02-14T11:24:37;4.83;;;2.00;;
20525;SDS011;10421;49.142;9.232;2024-02-14T11:27:10;2.73;;;2.13;;
20525;SDS011;10421;49.142;9.232;2024-02-14T11:29:38;2.60;;;1.50;;
20525;SDS011;10421;49.142;9.232;2024-02-14T11:32:06;7.10;;;2.30;;
20525;SDS011;10421;49.142;9.232;2024-02-14T11:34:34;3.80;;;2.07;;
20525;SDS011;10421;49.142;9.232;2024-02-14T11:37:01;4.60;;;1.97;;
20525;SDS011;10421;49.142;9.232;2024-02-14T11:39:29;2.60;;;1.83;;
20525;SDS011;10421;49.142;9.232;2024-02-14T11:41:56;3.67;;;2.33;;
20525;SDS011;10421;49.142;9.232;2024-02-14T11:44:26;5.30;;;2.10;;
20525;SDS011;10421;49.142;9.232;2024-02-14T11:46:52;6.50;;;2.30;;
20525;SDS011;10421;49.142;9.232;2024-02-14T11:49:21;3.50;;;2.00;;
20525;SDS011;10421;49.142;9.232;2024-02-14T11:51:48;6.30;;;2.27;;
20525;SDS011;10421;49.142;9.232;2024-02-14T11:54:15;2.20;;;1.90;;
20525;SDS011;10421;49.142;9.232;2024-02-14T11:56:43;3.13;;;1.73;;
20525;SDS011;10421;49.142;9.232;2024-02-14T11:59:10;3.53;;;2.27;;
20525;SDS011;10421;49.142;9.232;2024-02-14T12:01:38;3.27;;;2.53;;
20525;SDS011;10421;49.142;9.232;2024-02-14T12:04:06;5.27;;;2.63;;
20525;SDS011;10421;49.142;9.232;2024-02-14T12:06:35;2.70;;;2.03;;
20525;SDS011;10421;49.142;9.232;2024-02-14T12:09:03;4.37;;;2.13;;
20525;SDS011;10421;49.142;9.232;2024-02-14T12:11:31;2.57;;;2.20;;
20525;SDS011;10421;49.142;9.232;2024-02-14T12:14:00;2.40;;;2.03;;
20525;SDS011;10421;49.142;9.232;2024-02-14T12:16:28;3.80;;;1.93;;
20525;SDS011;10421;49.142;9.232;2024-02-14T12:19:03;1.60;;;1.20;;
20525;SDS011;10421;49.142;9.232;2024-02-14T12:21:33;1.53;;;0.90;;
20525;SDS011;10421;49.142;9.232;2024-02-14T12:24:01;5.43;;;1.20;;
20525;SDS011;10421;49.142;9.232;2024-02-14T12:26:29;1.47;;;1.20;;
20525;SDS011;10421;49.142;9.232;2024-02-14T12:28:57;1.00;;;0.90;;
20525;SDS011;10421;49.142;9.232;2024-02-14T12:31:24;1.80;;;1.10;;
20525;SDS011;10421;49.142;9.232;2024-02-14T12:33:51;1.90;;;1.30;;
20525;SDS011;10421;49.142;9.232;2024-02-14T12:36:21;2.60;;;1.57;;
20525;SDS011;10421;49.142;9.232;2024-02-14T12:38:48;2.30;;;2.07;;
20525;SDS011;10421;49.142;9.232;2024-02-14T12:41:16;3.07;;;1.77;;
20525;SDS011;10421;49.142;9.232;2024-02-14T12:43:43;2.87;;;1.27;;
20525;SDS011;10421;49.142;9.232;2024-02-14T12:46:10;3.43;;;3.10;;
20525;SDS011;10421;49.142;9.232;2024-02-14T12:48:37;2.43;;;2.23;;
20525;SDS011;10421;49.142;9.232;2024-02-14T12:51:04;1.47;;;0.90;;
20525;SDS011;10421;49.142;9.232;2024-02-14T12:53:32;1.90;;;1.10;;
20525;SDS011;10421;49.142;9.232;2024-02-14T12:55:59;1.60;;;0.93;;
20525;SDS011;10421;49.142;9.232;2024-02-14T12:58:26;0.80;;;0.80;;
20525;SDS011;10421;49.142;9.232;2024-02-14T13:00:53;1.83;;;1.00;;
20525;SDS011;10421;49.142;9.232;2024-02-14T13:03:19;2.07;;;1.13;;
20525;SDS011;10421;49.142;9.232;2024-02-14T13:05:46;3.67;;;1.37;;
20525;SDS011;10421;49.142;9.232;2024-02-14T13:08:13;1.50;;;1.40;;
20525;SDS011;10421;49.142;9.232;2024-02-14T13:10:43;2.43;;;1.20;;
20525;SDS011;10421;49.142;9.232;2024-02-14T13:13:10;1.80;;;1.30;;
20525;SDS011;10421;49.142;9.232;2024-02-14T13:15:37;1.77;;;1.37;;
20525;SDS011;10421;49.142;9.232;2024-02-14T13:18:05;3.40;;;1.17;;
20525;SDS011;10421;49.142;9.232;2024-02-14T13:20:32;2.13;;;1.20;;
20525;SDS011;10421;49.142;9.232;2024-02-14T13:22:59;2.83;;;1.20;;
20525;SDS011;10421;49.142;9.232;2024-02-14T13:25:27;2.13;;;1.30;;
20525;SDS011;10421;49.142;9.232;2024-02-14T13:27:55;1.47;;;1.30;;
20525;SDS011;10421;49.142;9.232;2024-02-14T13:30:23;1.53;;;1.30;;
20525;SDS011;10421;49.142;9.232;2024-02-14T13:32:50;2.13;;;1.10;;
20525;SDS011;10421;49.142;9.232;2024-02-14T13:35:17;1.73;;;1.40;;
20525;SDS011;10421;49.142;9.232;2024-02-14T13:37:44;3.17;;;1.50;;
20525;SDS011;10421;49.142;9.232;2024-02-14T13:40:11;1.63;;;1.40;;
20525;SDS011;10421;49.142;9.232;2024-02-14T13:42:38;1.40;;;1.30;;
20525;SDS011;10421;49.142;9.232;2024-02-14T13:45:07;1.90;;;1.30;;
20525;SDS011;10421;49.142;9.232;2024-02-14T13:47:35;2.30;;;1.47;;
20525;SDS011;10421;49.142;9.232;2024-02-14T13:50:04;2.30;;;1.73;;
20525;SDS011;10421;49.142;9.232;2024-02-14T13:52:31;4.13;;;1.90;;
20525;SDS011;10421;49.142;9.232;2024-02-14T13:54:58;3.93;;;1.80;;
20525;SDS011;10421;49.142;9.232;2024-02-14T13:57:27;2.13;;;1.90;;
20525;SDS011;10421;49.142;9.232;2024-02-14T13:59:54;2.80;;;1.57;;
20525;SDS011;10421;49.142;9.232;2024-02-14T14:02:22;3.43;;;2.00;;
20525;SDS011;10421;49.142;9.232;2024-02-14T14:04:49;2.50;;;1.40;;
20525;SDS011;10421;49.142;9.232;2024-02-14T14:07:17;2.87;;;1.57;;
20525;SDS011;10421;49.142;9.232;2024-02-14T14:09:44;1.47;;;1.10;;
20525;SDS011;10421;49.142;9.232;2024-02-14T14:12:12;2.87;;;1.60;;
20525;SDS011;10421;49.142;9.232;2024-02-14T14:14:38;1.83;;;1.50;;
20525;SDS011;10421;49.142;9.232;2024-02-14T14:17:05;2.93;;;1.90;;
20525;SDS011;10421;49.142;9.232;2024-02-14T14:19:33;4.40;;;1.63;;
20525;SDS011;10421;49.142;9.232;2024-02-14T14:22:01;3.17;;;1.90;;
20525;SDS011;10421;49.142;9.232;2024-02-14T14:24:28;2.70;;;1.00;;
20525;SDS011;10421;49.142;9.232;2024-02-14T14:26:56;6.57;;;1.90;;
20525;SDS011;10421;49.142;9.232;2024-02-14T14:29:23;3.17;;;1.70;;
20525;SDS011;10421;49.142;9.232;2024-02-14T14:31:50;4.83;;;1.50;;
20525;SDS011;10421;49.142;9.232;2024-02-14T14:34:17;5.07;;;2.80;;
20525;SDS011;10421;49.142;9.232;2024-02-14T14:36:46;17.20;;;11.97;;
20525;SDS011;10421;49.142;9.232;2024-02-14T14:39:12;4.63;;;3.80;;
20525;SDS011;10421;49.142;9.232;2024-02-14T14:41:39;5.43;;;3.60;;
20525;SDS011;10421;49.142;9.232;2024-02-14T14:44:07;5.80;;;2.53;;
20525;SDS011;10421;49.142;9.232;2024-02-14T14:46:34;3.60;;;2.27;;
20525;SDS011;10421;49.142;9.232;2024-02-14T14:49:02;1.33;;;1.23;;
20525;SDS011;10421;49.142;9.232;2024-02-14T14:51:29;1.73;;;1.40;;